createdAt,value
2022-09-06T00:01:14.129Z,1.75
2022-09-06T00:04:17.289Z,2.92
2022-09-06T00:07:20.057Z,1.85
2022-09-06T00:10:22.741Z,2.45
2022-09-06T00:13:26.897Z,2.17
2022-09-06T00:16:30.612Z,2.15
2022-09-06T00:19:33.461Z,7.03
2022-09-06T00:22:36.544Z,2.88
2022-09-06T00:25:39.320Z,1.60
2022-09-06T00:28:45.836Z,4.85
2022-09-06T00:31:48.577Z,3.05
2022-09-06T00:34:51.408Z,2.20
2022-09-06T00:37:57.633Z,3.67
2022-09-06T00:41:00.437Z,3.30
2022-09-06T00:44:04.742Z,1.90
2022-09-06T00:47:07.624Z,1.20
2022-09-06T00:50:11.112Z,3.17
2022-09-06T00:53:13.817Z,1.40
2022-09-06T00:56:16.547Z,2.13
2022-09-06T00:59:20.778Z,1.85
2022-09-06T01:02:23.760Z,1.65
2022-09-06T01:05:30.283Z,3.13
2022-09-06T01:08:40.464Z,2.25
2022-09-06T01:11:52.068Z,1.35
2022-09-06T01:15:12.253Z,1.17
2022-09-06T01:18:22.620Z,1.17
2022-09-06T01:21:40.723Z,4.13
2022-09-06T01:24:56.040Z,2.90
2022-09-06T01:28:28.589Z,2.20
2022-09-06T01:31:33.196Z,1.15
2022-09-06T01:34:37.625Z,2.13
2022-09-06T01:37:40.711Z,1.98
2022-09-06T01:40:43.514Z,2.72
2022-09-06T01:43:49.518Z,2.47
2022-09-06T01:46:54.695Z,3.08
2022-09-06T01:50:05.933Z,2.90
2022-09-06T01:53:14.791Z,1.25
2022-09-06T01:56:23.374Z,3.92
2022-09-06T01:59:37.456Z,1.27
2022-09-06T02:02:54.736Z,2.78
2022-09-06T02:05:59.367Z,3.20
2022-09-06T02:09:04.361Z,1.85
2022-09-06T02:12:07.432Z,2.08
2022-09-06T02:15:12.712Z,2.00
2022-09-06T02:18:17.217Z,4.68
2022-09-06T02:21:20.941Z,3.67
2022-09-06T02:24:24.901Z,3.25
2022-09-06T02:27:27.622Z,2.45
2022-09-06T02:30:31.961Z,3.92
2022-09-06T02:33:36.304Z,2.67
2022-09-06T02:36:39.020Z,2.78
2022-09-06T02:39:41.869Z,4.68
2022-09-06T02:42:44.889Z,5.95
2022-09-06T02:45:49.315Z,4.05
2022-09-06T02:48:52.103Z,7.88
2022-09-06T02:51:54.848Z,3.45
2022-09-06T02:54:57.689Z,5.35
2022-09-06T02:58:00.493Z,4.10
2022-09-06T03:01:05.594Z,2.58
2022-09-06T03:04:08.589Z,4.63
2022-09-06T03:07:11.484Z,9.57
2022-09-06T03:10:14.288Z,2.72
2022-09-06T03:13:18.109Z,5.78
2022-09-06T03:16:22.660Z,6.97
2022-09-06T03:19:25.431Z,6.00
2022-09-06T03:22:28.258Z,5.05
2022-09-06T03:25:31.036Z,4.10
2022-09-06T03:28:33.764Z,4.50
2022-09-06T03:31:38.062Z,5.85
2022-09-06T03:34:40.806Z,5.18
2022-09-06T03:37:43.575Z,4.07
2022-09-06T03:40:47.254Z,5.47
2022-09-06T03:43:49.939Z,5.20
2022-09-06T03:46:54.199Z,3.80
2022-09-06T03:49:56.921Z,5.15
2022-09-06T03:52:59.653Z,6.90
2022-09-06T03:56:02.503Z,5.65
2022-09-06T03:59:05.271Z,5.38
2022-09-06T04:02:09.442Z,6.32
2022-09-06T04:05:13.375Z,4.97
2022-09-06T04:08:17.219Z,5.22
2022-09-06T04:11:20.233Z,9.45
2022-09-06T04:14:23.007Z,3.58
2022-09-06T04:17:27.339Z,7.32
2022-09-06T04:20:30.142Z,9.88
2022-09-06T04:23:36.399Z,7.32
2022-09-06T04:26:42.015Z,6.03
2022-09-06T04:29:44.938Z,6.78
2022-09-06T04:32:49.248Z,5.70
2022-09-06T04:35:52.178Z,6.07
2022-09-06T04:38:55.694Z,5.85
2022-09-06T04:41:58.404Z,5.03
2022-09-06T04:45:01.104Z,6.47
2022-09-06T04:48:05.534Z,11.38
2022-09-06T04:51:08.329Z,6.28
2022-09-06T04:54:11.163Z,11.35
2022-09-06T04:57:13.955Z,9.13
2022-09-06T05:00:17.054Z,7.43
2022-09-06T05:03:21.293Z,15.20
2022-09-06T05:06:24.982Z,10.35
2022-09-06T05:09:27.915Z,7.47
2022-09-06T05:12:30.759Z,8.40
2022-09-06T05:15:33.672Z,10.90
2022-09-06T05:18:37.847Z,8.05
2022-09-06T05:21:43.472Z,10.20
2022-09-06T05:24:46.400Z,12.10
2022-09-06T05:27:49.251Z,7.70
2022-09-06T05:30:51.966Z,7.78
2022-09-06T05:33:58.439Z,11.63
2022-09-06T05:37:01.177Z,7.10
2022-09-06T05:40:04.588Z,8.52
2022-09-06T05:43:07.430Z,9.45
2022-09-06T05:46:10.555Z,10.10
2022-09-06T05:49:14.981Z,15.65
2022-09-06T05:52:18.407Z,11.90
2022-09-06T05:55:21.175Z,10.70
2022-09-06T05:58:23.941Z,13.80
2022-09-06T06:01:27.276Z,12.45
2022-09-06T06:04:31.479Z,11.43
2022-09-06T06:07:34.661Z,9.20
2022-09-06T06:10:39.495Z,12.57
2022-09-06T06:13:43.224Z,8.23
2022-09-06T06:16:46.016Z,10.43
2022-09-06T06:19:50.444Z,13.48
2022-09-06T06:22:53.226Z,11.38
2022-09-06T06:25:56.020Z,9.98
2022-09-06T06:29:01.880Z,12.90
2022-09-06T06:32:04.779Z,12.02
2022-09-06T06:35:10.019Z,11.35
2022-09-06T06:38:13.142Z,10.52
2022-09-06T06:41:16.561Z,7.90
2022-09-06T06:44:19.261Z,13.40
2022-09-06T06:47:22.182Z,9.73
2022-09-06T06:50:26.411Z,12.57
2022-09-06T06:53:29.145Z,7.95
2022-09-06T06:56:32.866Z,10.13
2022-09-06T06:59:35.687Z,11.02
2022-09-06T07:02:38.483Z,10.55
2022-09-06T07:09:07.560Z,11.43
2022-09-06T07:12:10.375Z,10.63
2022-09-06T07:15:13.166Z,8.70
2022-09-06T07:18:16.817Z,11.27
2022-09-06T07:21:41.376Z,10.50
2022-09-06T07:24:44.127Z,5.68
2022-09-06T07:27:47.884Z,8.27
2022-09-06T07:30:54.018Z,9.52
2022-09-06T07:33:56.806Z,6.28
2022-09-06T07:37:00.943Z,6.43
2022-09-06T07:40:04.688Z,7.13
2022-09-06T07:43:07.601Z,8.45
2022-09-06T07:46:11.180Z,8.07
2022-09-06T07:49:13.936Z,7.53
2022-09-06T07:55:42.994Z,7.00
2022-09-06T07:58:45.716Z,7.68
2022-09-06T08:01:49.533Z,8.65
2022-09-06T08:04:52.608Z,7.05
2022-09-06T08:11:20.290Z,3.85
2022-09-06T08:14:23.180Z,11.40
2022-09-06T08:17:26.067Z,7.15
2022-09-06T08:20:28.988Z,7.20
2022-09-06T08:23:33.242Z,8.68
2022-09-06T08:26:36.810Z,5.32
2022-09-06T08:29:40.008Z,5.68
2022-09-06T08:32:43.083Z,7.45
2022-09-06T08:35:47.013Z,5.22
2022-09-06T08:38:51.541Z,4.68
2022-09-06T08:41:56.808Z,6.55
2022-09-06T08:45:01.725Z,6.85
2022-09-06T08:48:05.003Z,7.32
2022-09-06T08:51:30.379Z,7.43
2022-09-06T08:54:38.222Z,8.48
2022-09-06T08:57:47.630Z,7.78
2022-09-06T09:00:53.387Z,5.82
2022-09-06T09:03:57.460Z,6.45
2022-09-06T09:07:01.836Z,10.18
2022-09-06T09:10:09.039Z,8.30
2022-09-06T09:13:21.890Z,7.47
2022-09-06T09:16:24.897Z,13.43
2022-09-06T09:19:27.867Z,9.85
2022-09-06T09:22:30.762Z,7.47
2022-09-06T09:25:35.292Z,8.65
2022-09-06T09:28:38.172Z,9.73
2022-09-06T09:31:41.890Z,6.22
2022-09-06T09:34:44.971Z,9.95
2022-09-06T09:37:49.698Z,9.93
2022-09-06T09:40:57.845Z,10.65
2022-09-06T09:44:04.764Z,8.25
2022-09-06T09:47:16.114Z,12.60
2022-09-06T09:50:27.520Z,16.60
2022-09-06T09:53:30.549Z,10.77
2022-09-06T09:56:41.755Z,10.23
2022-09-06T09:59:45.894Z,16.15
2022-09-06T10:02:48.715Z,10.77
2022-09-06T10:06:02.231Z,7.75
2022-09-06T10:09:31.204Z,8.02
2022-09-06T10:12:39.081Z,7.90
2022-09-06T10:15:42.216Z,11.35
2022-09-06T10:18:45.776Z,7.72
2022-09-06T10:21:48.790Z,6.22
2022-09-06T10:25:00.692Z,10.63
2022-09-06T10:28:33.252Z,8.35
2022-09-06T10:32:05.836Z,10.90
2022-09-06T10:35:16.419Z,8.65
2022-09-06T10:38:32.858Z,11.55
2022-09-06T10:41:49.344Z,6.97
2022-09-06T10:45:12.931Z,10.25
2022-09-06T10:48:19.445Z,13.75
2022-09-06T10:51:25.057Z,8.35
2022-09-06T10:54:28.553Z,8.45
2022-09-06T11:00:59.095Z,7.53
2022-09-06T11:04:09.134Z,9.85
2022-09-06T11:07:17.797Z,7.63
2022-09-06T11:10:23.457Z,9.13
2022-09-06T11:13:29.621Z,8.23
2022-09-06T11:16:40.162Z,6.95
2022-09-06T11:19:46.101Z,9.80
2022-09-06T11:23:14.156Z,14.65
2022-09-06T11:26:29.761Z,9.77
2022-09-06T11:29:33.012Z,8.98
2022-09-06T11:32:39.946Z,9.35
2022-09-06T11:35:43.280Z,4.38
2022-09-06T11:38:55.948Z,8.15
2022-09-06T11:41:58.968Z,5.20
2022-09-06T11:45:24.538Z,4.65
2022-09-06T11:49:04.027Z,5.15
2022-09-06T11:52:59.375Z,6.90
2022-09-06T11:56:19.160Z,7.75
2022-09-06T11:59:38.277Z,4.13
2022-09-06T12:02:43.596Z,6.78
2022-09-06T12:06:16.800Z,8.60
2022-09-06T12:09:30.606Z,4.78
2022-09-06T12:12:42.306Z,6.55
2022-09-06T12:15:46.449Z,6.50
2022-09-06T12:19:02.594Z,4.82
2022-09-06T12:22:06.178Z,6.70
2022-09-06T12:25:17.094Z,4.82
2022-09-06T12:28:30.490Z,4.45
2022-09-06T12:31:37.980Z,3.90
2022-09-06T12:34:41.046Z,6.95
2022-09-06T12:37:51.242Z,6.40
2022-09-06T12:40:58.569Z,5.30
2022-09-06T12:44:03.250Z,8.45
2022-09-06T12:47:08.214Z,5.13
2022-09-06T12:50:14.895Z,7.15
2022-09-06T12:53:25.066Z,6.43
2022-09-06T12:56:28.630Z,5.07
2022-09-06T12:59:33.517Z,3.88
2022-09-06T13:02:38.547Z,9.30
2022-09-06T13:05:41.936Z,4.82
2022-09-06T13:08:47.058Z,6.82
2022-09-06T13:11:51.507Z,6.28
2022-09-06T13:14:56.043Z,6.20
2022-09-06T13:18:20.111Z,4.30
2022-09-06T13:21:27.636Z,5.28
2022-09-06T13:24:45.833Z,7.28
2022-09-06T13:27:51.158Z,7.65
2022-09-06T13:31:06.114Z,8.25
2022-09-06T13:34:08.896Z,6.55
2022-09-06T13:37:11.922Z,10.05
2022-09-06T13:41:07.065Z,7.20
2022-09-06T13:44:07.844Z,8.82
2022-09-06T13:47:11.939Z,7.00
2022-09-06T13:50:15.936Z,7.25
2022-09-06T13:53:20.510Z,12.73
2022-09-06T13:56:23.290Z,6.72
2022-09-06T13:59:26.486Z,7.22
2022-09-06T14:02:30.860Z,12.40
2022-09-06T14:05:34.612Z,11.55
2022-09-06T14:09:03.325Z,6.60
2022-09-06T14:12:02.243Z,4.53
2022-09-06T14:15:05.858Z,13.82
2022-09-06T14:18:14.259Z,4.45
2022-09-06T14:21:17.318Z,6.72
2022-09-06T14:24:20.207Z,6.35
2022-09-06T14:27:23.222Z,8.77
2022-09-06T14:30:26.045Z,5.47
2022-09-06T14:33:30.194Z,9.40
2022-09-06T14:36:33.194Z,10.00
2022-09-06T14:39:35.939Z,5.32
2022-09-06T14:42:38.806Z,5.03
2022-09-06T14:45:41.647Z,6.60
2022-09-06T14:48:46.051Z,6.50
2022-09-06T14:51:48.771Z,4.05
2022-09-06T14:54:51.521Z,9.10
2022-09-06T14:57:54.443Z,3.30
2022-09-06T15:00:57.157Z,4.00
2022-09-06T15:04:03.282Z,5.32
2022-09-06T15:07:11.924Z,4.20
2022-09-06T15:10:14.590Z,3.47
2022-09-06T15:13:18.334Z,5.07
2022-09-06T15:16:21.382Z,6.20
2022-09-06T15:19:25.736Z,6.10
2022-09-06T15:22:28.580Z,3.70
2022-09-06T15:25:32.093Z,4.05
2022-09-06T15:28:37.067Z,5.15
2022-09-06T15:31:40.062Z,4.57
2022-09-06T15:34:44.320Z,5.57
2022-09-06T15:37:48.630Z,4.45
2022-09-06T15:40:52.012Z,5.35
2022-09-06T15:43:56.655Z,5.75
2022-09-06T15:46:59.369Z,6.68
2022-09-06T15:50:03.550Z,4.28
2022-09-06T15:53:06.262Z,3.90
2022-09-06T15:56:10.144Z,4.07
2022-09-06T15:59:13.217Z,4.78
2022-09-06T16:02:16.116Z,3.92
2022-09-06T16:08:45.628Z,7.67
2022-09-06T16:11:48.614Z,12.15
2022-09-06T16:14:52.060Z,5.38
2022-09-06T16:17:55.656Z,5.30
2022-09-06T16:21:00.026Z,7.35
2022-09-06T16:24:03.503Z,5.95
2022-09-06T16:27:06.205Z,3.20
2022-09-06T16:30:10.047Z,4.95
2022-09-06T16:33:12.809Z,5.00
2022-09-06T16:36:17.293Z,2.75
2022-09-06T16:39:20.046Z,3.83
2022-09-06T16:42:22.880Z,10.63
2022-09-06T16:45:25.640Z,6.88
2022-09-06T16:48:28.709Z,15.82
2022-09-06T16:51:32.995Z,10.38
2022-09-06T16:54:36.474Z,2.47
2022-09-06T16:57:39.772Z,3.15
2022-09-06T17:00:42.638Z,6.15
2022-09-06T17:03:45.358Z,4.72
2022-09-06T17:06:49.634Z,8.52
2022-09-06T17:09:52.411Z,4.93
2022-09-06T17:12:55.241Z,4.03
2022-09-06T17:16:17.204Z,3.05
2022-09-06T17:19:22.797Z,10.10
2022-09-06T17:22:26.846Z,2.47
2022-09-06T17:25:29.633Z,3.72
2022-09-06T17:29:13.969Z,3.70
2022-09-06T17:32:16.676Z,6.20
2022-09-06T17:35:19.449Z,2.53
2022-09-06T17:38:23.598Z,4.55
2022-09-06T17:41:28.013Z,4.75
2022-09-06T17:44:30.685Z,6.35
2022-09-06T17:47:36.323Z,4.13
2022-09-06T17:50:41.429Z,3.65
2022-09-06T17:53:46.774Z,5.47
2022-09-06T17:56:49.553Z,4.70
2022-09-06T17:59:52.300Z,6.50
2022-09-06T18:02:55.190Z,9.38
2022-09-06T18:06:03.560Z,6.60
2022-09-06T18:09:09.556Z,5.72
2022-09-06T18:12:12.323Z,5.35
2022-09-06T18:15:15.033Z,4.55
2022-09-06T18:18:18.004Z,5.50
2022-09-06T18:21:20.796Z,6.63
2022-09-06T18:24:25.216Z,6.45
2022-09-06T18:27:28.264Z,6.05
2022-09-06T18:30:30.950Z,7.03
2022-09-06T18:33:35.002Z,3.47
2022-09-06T18:36:38.042Z,4.78
2022-09-06T18:39:42.953Z,5.43
2022-09-06T18:42:45.730Z,7.25
2022-09-06T18:45:48.638Z,12.82
2022-09-06T18:48:51.386Z,10.32
2022-09-06T18:51:54.141Z,10.52
2022-09-06T18:54:58.390Z,14.60
2022-09-06T18:58:03.804Z,8.35
2022-09-06T19:01:07.778Z,12.68
2022-09-06T19:04:10.862Z,11.32
2022-09-06T19:07:13.698Z,14.32
2022-09-06T19:10:18.153Z,14.95
2022-09-06T19:13:21.490Z,9.38
2022-09-06T19:16:24.695Z,10.85
2022-09-06T19:19:27.763Z,12.63
2022-09-06T19:22:30.564Z,10.57
2022-09-06T19:25:34.745Z,12.73
2022-09-06T19:28:37.959Z,10.98
2022-09-06T19:31:40.892Z,10.23
2022-09-06T19:34:43.847Z,13.00
2022-09-06T19:37:46.647Z,10.43
2022-09-06T19:40:50.802Z,7.78
2022-09-06T19:43:54.157Z,9.57
2022-09-06T19:46:57.079Z,12.25
2022-09-06T19:49:59.875Z,9.85
2022-09-06T19:53:07.062Z,7.80
2022-09-06T19:56:11.957Z,11.75
2022-09-06T19:59:15.318Z,9.90
2022-09-06T20:02:18.629Z,12.45
2022-09-06T20:05:21.578Z,10.13
2022-09-06T20:08:24.304Z,11.80
2022-09-06T20:11:29.584Z,9.73
2022-09-06T20:14:32.323Z,7.40
2022-09-06T20:17:35.108Z,9.77
2022-09-06T20:20:37.942Z,10.75
2022-09-06T20:23:40.630Z,10.13
2022-09-06T20:26:45.515Z,10.70
2022-09-06T20:29:48.202Z,8.32
2022-09-06T20:32:50.976Z,17.42
2022-09-06T20:35:57.526Z,11.95
2022-09-06T20:39:00.226Z,7.78
2022-09-06T20:42:04.523Z,13.70
2022-09-06T20:45:08.926Z,10.88
2022-09-06T20:48:11.734Z,13.20
2022-09-06T20:51:15.584Z,9.00
2022-09-06T20:54:18.294Z,13.35
2022-09-06T20:57:22.390Z,8.55
2022-09-06T21:00:25.264Z,10.45
2022-09-06T21:03:28.040Z,8.50
2022-09-06T21:06:33.681Z,9.93
2022-09-06T21:09:36.849Z,13.93
2022-09-06T21:12:40.903Z,9.15
2022-09-06T21:15:43.615Z,6.00
2022-09-06T21:18:46.373Z,4.57
2022-09-06T21:21:49.006Z,6.38
2022-09-06T21:24:51.650Z,8.82
2022-09-06T21:27:56.022Z,15.55
2022-09-06T21:31:02.962Z,19.95
2022-09-06T21:37:09.169Z,5.63
2022-09-06T21:40:13.008Z,7.18
2022-09-06T21:43:17.212Z,5.80
2022-09-06T21:46:20.758Z,4.03
2022-09-06T21:49:23.648Z,6.93
2022-09-06T21:52:26.381Z,7.25
2022-09-06T21:55:29.097Z,4.85
2022-09-06T21:58:33.713Z,5.43
2022-09-06T22:01:37.055Z,5.25
2022-09-06T22:04:39.704Z,6.25
2022-09-06T22:07:42.756Z,4.32
2022-09-06T22:10:45.521Z,4.30
2022-09-06T22:13:50.145Z,7.97
2022-09-06T22:16:53.524Z,4.35
2022-09-06T22:19:56.229Z,7.47
2022-09-06T22:22:59.058Z,8.50
2022-09-06T22:26:02.880Z,14.77
2022-09-06T22:29:08.403Z,10.38
2022-09-06T22:32:11.595Z,12.40
2022-09-06T22:35:16.736Z,12.10
2022-09-06T22:38:19.623Z,14.43
2022-09-06T22:41:22.466Z,13.93
2022-09-06T22:44:26.627Z,10.32
2022-09-06T22:47:29.521Z,11.98
2022-09-06T22:50:32.460Z,8.25
2022-09-06T22:53:35.378Z,11.48
2022-09-06T22:56:38.452Z,7.00
2022-09-06T22:59:42.660Z,4.55
2022-09-06T23:02:45.412Z,6.78
2022-09-06T23:05:48.153Z,7.72
2022-09-06T23:08:50.914Z,8.88
2022-09-06T23:11:53.782Z,5.57
2022-09-06T23:14:58.283Z,5.07
2022-09-06T23:18:01.183Z,6.90
2022-09-06T23:21:07.871Z,5.25
2022-09-06T23:24:10.665Z,6.40
2022-09-06T23:27:13.346Z,5.75
2022-09-06T23:30:17.488Z,8.27
2022-09-06T23:33:20.255Z,7.25
2022-09-06T23:36:23.000Z,11.10
2022-09-06T23:39:25.841Z,11.35
2022-09-06T23:42:28.685Z,8.18
2022-09-06T23:45:33.065Z,6.15
2022-09-06T23:48:36.172Z,6.05
2022-09-06T23:51:39.160Z,2.83
2022-09-06T23:54:42.050Z,3.72
2022-09-06T23:57:44.900Z,7.93
